Terminal Aerodrome Forecast
Issued by NWS Charleston, WV

Current Version | Previous Version | Graphics & Text | Print | Product List | Glossary Off
Versions: 1 2 3 4 5 6 7 8 9 10 11 12 13 14 15 16 17 18 19 20 21 22 23 24

212
FTUS41 KRLX 302338
TAFHTS
TAF
KHTS 302338Z 0100/0124 12005KT 6SM SHRA SCT004 OVC035
      TEMPO 0100/0101 BKN004
     FM010400 14006KT 5SM SHRA BR OVC015
     FM010600 17006KT 5SM SHRA BR OVC008
     FM011000 20005KT 6SM SHRA BKN010
     FM011300 22006KT P6SM BKN025
     FM011600 23007KT P6SM VCTS BKN040CB=

USA.gov is the U.S. government's official web portal to all federal, state and local government web resources and services.